Time;durP1;ratioP1;P1;durP2;ratioP2;P2;SDS_P1;SDS_P2;PMS_P1;PMS_P2;Temp;Humidity;BMP_temperature;BMP_pressure;BME280_temperature;BME280_humidity;BME280_pressure;Samples;Min_cycle;Max_cycle;Signal;HPM_P1;HPM_P2
2023/01/31 00:01:19;;;;;;;1999.90;999.90;;;7.60;99.90;;;;;;4907852;29;20089;-83
2023/01/31 00:03:46;;;;;;;1999.90;999.90;;;8.50;1.00;;;;;;4956403;28;20071;-81
2023/01/31 00:06:28;;;;;;;1999.90;999.90;;;8.50;99.90;;;;;;4955253;28;20047;-81
2023/01/31 00:08:55;;;;;;;1999.90;999.90;;;6.80;99.90;;;;;;4956282;29;20218;-81
2023/01/31 00:11:24;;;;;;;1999.90;999.90;;;6.70;1.00;;;;;;4957513;29;20122;-81
2023/01/31 00:13:50;;;;;;;1999.90;999.90;;;7.10;1.00;;;;;;4956587;29;20058;-81
2023/01/31 00:16:17;;;;;;;1999.90;999.90;;;8.80;1.00;;;;;;4936290;29;20051;-82
2023/01/31 00:18:43;;;;;;;1999.90;999.90;;;5.20;1.00;;;;;;4955971;28;20086;-81
2023/01/31 00:21:16;;;;;;;1999.90;999.90;;;6.70;1.00;;;;;;4940390;29;20059;-82
2023/01/31 00:23:43;;;;;;;1999.90;999.90;;;6.70;1.00;;;;;;4951531;28;20050;-82
2023/01/31 00:26:21;;;;;;;1999.90;999.90;;;6.70;1.00;;;;;;4939746;29;20110;-82
2023/01/31 00:28:48;;;;;;;1999.90;999.90;;;6.60;1.00;;;;;;4905958;29;20051;-82
2023/01/31 00:31:15;;;;;;;1999.90;999.90;;;6.60;1.00;;;;;;4922681;29;20438;-82
2023/01/31 00:33:44;;;;;;;1999.90;999.90;;;7.70;1.00;;;;;;4947426;28;20052;-82
2023/01/31 00:36:13;;;;;;;1999.90;999.90;;;6.60;1.00;;;;;;4934491;29;20653;-82
2023/01/31 00:38:38;;;;;;;1999.90;999.90;;;5.00;1.00;;;;;;4939417;29;20378;-82
2023/01/31 00:41:05;;;;;;;1999.90;999.90;;;6.60;1.00;;;;;;4939392;29;20058;-83
2023/01/31 00:43:31;;;;;;;1999.90;999.90;;;7.80;1.00;;;;;;4955888;28;20051;-81
2023/01/31 00:45:57;;;;;;;1999.90;999.90;;;6.90;1.00;;;;;;4955083;28;20306;-81
2023/01/31 00:48:23;;;;;;;1999.90;999.90;;;6.60;1.00;;;;;;4953205;29;20130;-82
2023/01/31 00:50:49;;;;;;;1999.90;999.90;;;5.30;1.00;;;;;;4945294;28;20068;-82
2023/01/31 00:53:17;;;;;;;1999.90;999.90;;;6.70;1.00;;;;;;4928247;29;20058;-82
2023/01/31 00:55:43;;;;;;;;;;;6.40;1.00;;;;;;4953933;28;20050;-85
2023/01/31 00:58:09;;;;;;;1999.90;999.90;;;6.40;13.70;;;;;;4955179;29;19926;-82
2023/01/31 01:00:35;;;;;;;1999.90;999.90;;;6.30;1.00;;;;;;4954760;29;20047;-81
2023/01/31 01:03:00;;;;;;;1999.90;999.90;;;5.60;71.40;;;;;;4954620;28;20079;-81
2023/01/31 01:05:26;;;;;;;1999.90;999.90;;;;;;;;;;4953388;28;20400;-81
2023/01/31 01:07:52;;;;;;;1999.90;999.90;;;6.40;62.40;;;;;;4950769;28;20062;-81
2023/01/31 01:10:18;;;;;;;1999.90;999.90;;;6.20;27.40;;;;;;4938293;29;20051;-80
2023/01/31 01:12:43;;;;;;;1999.90;999.90;;;7.70;99.90;;;;;;4955424;28;20130;-81
2023/01/31 01:15:09;;;;;;;1999.90;999.90;;;6.80;80.30;;;;;;4941492;28;20059;-81
2023/01/31 01:17:35;;;;;;;1999.90;999.90;;;6.10;71.50;;;;;;4928099;29;20071;-82
2023/01/31 01:20:02;;;;;;;1999.90;999.90;;;6.70;90.90;;;;;;4953827;28;20126;-84
2023/01/31 01:22:32;;;;;;;1999.90;999.90;;;6.20;99.90;;;;;;4954816;29;20043;-82
2023/01/31 01:24:58;;;;;;;1999.90;999.90;;;;;;;;;;4955088;29;20075;-81
2023/01/31 01:27:26;;;;;;;1999.90;999.90;;;6.30;99.90;;;;;;4950180;29;20051;-81
2023/01/31 01:29:52;;;;;;;1999.90;999.90;;;6.20;99.90;;;;;;4937215;29;20160;-81
2023/01/31 01:32:18;;;;;;;1999.90;999.90;;;6.40;99.90;;;;;;4937722;29;20114;-81
2023/01/31 01:34:43;;;;;;;1999.90;999.90;;;6.30;99.90;;;;;;4932197;29;20050;-81
2023/01/31 01:37:10;;;;;;;1999.90;999.90;;;6.20;99.90;;;;;;4953621;28;20089;-82
2023/01/31 01:39:39;;;;;;;1999.90;999.90;;;5.90;99.90;;;;;;4910145;28;20044;-81
2023/01/31 01:42:07;;;;;;;1999.90;999.90;;;4.10;99.90;;;;;;4942886;29;20067;-82
2023/01/31 01:44:47;;;;;;;1999.90;999.90;;;6.20;99.90;;;;;;4955357;29;20051;-83
2023/01/31 01:47:49;;;;;;;1999.90;999.90;;;6.20;99.90;;;;;;4953301;28;20126;-81
2023/01/31 01:50:29;;;;;;;1999.90;999.90;;;6.30;99.90;;;;;;4947388;28;20050;-84
2023/01/31 01:53:00;;;;;;;1999.90;999.90;;;7.10;99.90;;;;;;4954562;28;20052;-80
2023/01/31 01:55:40;;;;;;;1999.90;999.90;;;6.30;99.90;;;;;;4951081;29;20047;-80
2023/01/31 01:58:30;;;;;;;1999.90;999.90;;;6.40;99.90;;;;;;4953423;28;20161;-80
2023/01/31 02:00:56;;;;;;;1999.90;999.90;;;7.40;99.90;;;;;;4942794;28;20051;-81
2023/01/31 02:03:22;;;;;;;1999.90;999.90;;;6.50;99.90;;;;;;4926724;29;20090;-81
2023/01/31 02:05:55;;;;;;;1999.90;999.90;;;8.30;99.90;;;;;;4953850;28;20149;-82
2023/01/31 02:08:24;;;;;;;1999.90;999.90;;;7.00;1.00;;;;;;4948350;28;20043;-82
2023/01/31 02:11:08;;;;;;;1999.90;999.90;;;7.40;1.00;;;;;;4955429;28;20053;-84
2023/01/31 02:13:35;;;;;;;1999.90;999.90;;;6.60;1.00;;;;;;4954504;28;20063;-82
2023/01/31 02:16:01;;;;;;;1999.90;999.90;;;8.70;1.00;;;;;;4949604;28;20064;-82
2023/01/31 02:18:27;;;;;;;1999.90;999.90;;;6.70;1.00;;;;;;4952538;28;20043;-82
2023/01/31 02:21:30;;;;;;;1999.90;999.90;;;6.60;1.00;;;;;;4953402;28;20050;-82
2023/01/31 02:24:20;;;;;;;1999.90;999.90;;;7.00;1.00;;;;;;4935952;29;20453;-82
2023/01/31 02:26:51;;;;;;;1999.90;999.90;;;6.80;99.90;;;;;;4945392;28;20050;-87
2023/01/31 02:29:29;;;;;;;1999.90;999.90;;;6.90;1.00;;;;;;4953028;28;20093;-82
2023/01/31 02:32:16;;;;;;;1999.90;999.90;;;6.90;99.90;;;;;;4935672;29;20489;-82
2023/01/31 02:34:52;;;;;;;1999.90;999.90;;;6.90;99.90;;;;;;4951773;28;20404;-82
2023/01/31 02:37:31;;;;;;;1999.90;999.90;;;7.00;99.90;;;;;;4943988;28;20051;-82
2023/01/31 02:40:08;;;;;;;1999.90;999.90;;;7.10;99.90;;;;;;4951736;28;20050;-82
2023/01/31 02:43:04;;;;;;;1999.90;999.90;;;7.20;77.90;;;;;;4953928;29;20409;-84
2023/01/31 02:45:57;;;;;;;1999.90;999.90;;;6.70;99.90;;;;;;4957535;28;20049;-82
2023/01/31 02:48:42;;;;;;;1999.90;999.90;;;7.20;99.90;;;;;;4949436;28;20480;-83
2023/01/31 02:51:14;;;;;;;1999.90;999.90;;;7.20;99.90;;;;;;4944778;29;20078;-81
2023/01/31 02:53:47;;;;;;;1999.90;999.90;;;7.30;79.80;;;;;;4935236;29;20512;-82
2023/01/31 02:56:26;;;;;;;1999.90;999.90;;;7.30;10.80;;;;;;4932498;29;20087;-82
2023/01/31 02:59:03;;;;;;;1999.90;999.90;;;7.30;31.30;;;;;;4946181;28;20039;-87
2023/01/31 03:01:38;;;;;;;1999.90;999.90;;;7.40;1.00;;;;;;4940374;28;20098;-82
2023/01/31 03:04:10;;;;;;;1999.90;999.90;;;7.40;1.00;;;;;;4953470;29;20043;-82
2023/01/31 03:06:36;;;;;;;1999.90;999.90;;;8.10;1.00;;;;;;4939883;28;20043;-84
2023/01/31 03:09:20;;;;;;;1999.90;999.90;;;7.40;1.00;;;;;;4953782;28;20079;-82
2023/01/31 03:11:46;;;;;;;1999.90;999.90;;;7.50;1.00;;;;;;4941749;29;20396;-81
2023/01/31 03:14:28;;;;;;;1999.90;999.90;;;7.20;1.00;;;;;;4948095;28;20055;-82
2023/01/31 03:20:07;;;;;;;1999.90;999.90;;;7.60;1.00;;;;;;4953554;28;20059;-83
2023/01/31 03:22:39;;;;;;;1999.90;999.90;;;7.70;1.00;;;;;;4937090;29;20539;-82
2023/01/31 03:25:08;;;;;;;1999.90;999.90;;;7.60;1.00;;;;;;4936218;29;20055;-83
2023/01/31 03:27:34;;;;;;;1999.90;999.90;;;7.60;1.00;;;;;;4954896;29;20137;-82
2023/01/31 03:30:08;;;;;;;1999.90;999.90;;;6.70;1.00;;;;;;4928073;29;20159;-82
2023/01/31 03:32:41;;;;;;;1999.90;999.90;;;7.60;1.00;;;;;;4934922;29;20044;-82
2023/01/31 03:35:08;;;;;;;1999.90;999.90;;;7.90;1.00;;;;;;4936696;29;20059;-82
2023/01/31 03:37:40;;;;;;;1999.90;999.90;;;7.70;1.00;;;;;;4954559;29;20055;-84
2023/01/31 03:40:18;;;;;;;1999.90;999.90;;;5.80;1.00;;;;;;4938631;28;20312;-81
2023/01/31 03:46:16;;;;;;;1999.90;999.90;;;7.80;1.00;;;;;;4930969;29;20070;-82
2023/01/31 03:48:45;;;;;;;1999.90;999.90;;;8.30;1.00;;;;;;4954051;29;20051;-84
2023/01/31 03:51:18;;;;;;;1999.90;999.90;;;8.80;1.00;;;;;;4942036;28;20413;-90
2023/01/31 03:53:52;;;;;;;1999.90;999.90;;;8.00;1.00;;;;;;4934915;29;20058;-82
2023/01/31 03:56:31;;;;;;;1999.90;999.90;;;8.40;1.00;;;;;;4944820;29;20245;-81
2023/01/31 03:59:02;;;;;;;1999.90;999.90;;;8.40;1.00;;;;;;4937110;29;20055;-82
2023/01/31 04:01:33;;;;;;;1999.90;999.90;;;8.20;1.00;;;;;;4954338;29;20047;-82
2023/01/31 04:04:18;;;;;;;1999.90;999.90;;;8.10;1.00;;;;;;4937373;29;20110;-91
2023/01/31 04:06:44;;;;;;;1999.90;999.90;;;9.60;1.00;;;;;;4952529;29;20045;-84
2023/01/31 04:09:09;;;;;;;1999.90;999.90;;;8.90;1.00;;;;;;4950802;28;20047;-81
2023/01/31 04:11:39;;;;;;;1999.90;999.90;;;8.70;1.00;;;;;;4956341;28;20447;-82
2023/01/31 04:14:06;;;;;;;1999.90;999.90;;;8.40;1.00;;;;;;4957078;28;20063;-82
2023/01/31 04:16:32;;;;;;;1999.90;999.90;;;;;;;;;;4948136;29;20047;-82
2023/01/31 04:18:58;;;;;;;1999.90;999.90;;;8.40;1.00;;;;;;4962649;28;20051;-82
2023/01/31 04:21:24;;;;;;;1999.90;938.67;;;8.40;1.00;;;;;;4937564;29;20102;-83
2023/01/31 04:23:49;;;;;;;1999.90;999.90;;;8.40;1.00;;;;;;4948618;28;20126;-82
2023/01/31 04:26:15;;;;;;;1999.90;999.90;;;9.20;1.00;;;;;;4939293;29;20085;-88
2023/01/31 04:28:41;;;;;;;1999.90;999.90;;;8.50;1.00;;;;;;4922375;29;20133;-83
2023/01/31 04:31:06;;;;;;;1999.90;999.90;;;8.50;1.00;;;;;;4950376;28;20050;-81
2023/01/31 04:33:32;;;;;;;1999.90;999.90;;;8.80;1.00;;;;;;4940113;29;20043;-82
2023/01/31 04:35:58;;;;;;;1999.90;999.90;;;;;;;;;;4955421;28;20480;-82
2023/01/31 04:38:24;;;;;;;1999.90;999.90;;;;;;;;;;4945610;29;20434;-81
2023/01/31 04:40:50;;;;;;;1999.90;999.90;;;8.50;1.00;;;;;;4950561;28;20047;-81
2023/01/31 04:43:16;;;;;;;1999.90;999.90;;;8.70;1.00;;;;;;4939816;29;20055;-82
2023/01/31 04:45:42;;;;;;;1999.90;999.90;;;9.10;1.00;;;;;;4956745;29;20131;-81
2023/01/31 04:48:07;;;;;;;1999.90;999.90;;;9.70;1.00;;;;;;4947213;28;20125;-82
2023/01/31 04:50:34;;;;;;;1999.90;999.90;;;;;;;;;;4937925;29;20051;-82
2023/01/31 04:53:00;;;;;;;1999.90;999.90;;;8.40;1.00;;;;;;4956684;29;20054;-81
2023/01/31 04:55:26;;;;;;;1999.90;999.90;;;8.50;1.00;;;;;;4951825;28;20051;-81
2023/01/31 04:57:52;;;;;;;1999.90;793.33;;;8.50;1.00;;;;;;4937649;29;20476;-82
2023/01/31 05:00:18;;;;;;;1999.90;999.90;;;8.50;1.00;;;;;;4937991;29;20058;-82
2023/01/31 05:02:44;;;;;;;1999.90;999.90;;;8.50;1.00;;;;;;4957042;29;20200;-80
2023/01/31 05:05:11;;;;;;;1999.90;999.90;;;8.50;1.00;;;;;;4957749;29;20054;-81
2023/01/31 05:07:38;;;;;;;1999.90;999.90;;;8.50;1.00;;;;;;4956795;29;20051;-80
2023/01/31 05:10:04;;;;;;;1999.90;999.90;;;11.30;94.20;;;;;;4956525;28;20182;-80
2023/01/31 05:13:13;;;;;;;1999.90;999.90;;;8.50;55.90;;;;;;4940371;29;20504;-80
2023/01/31 05:15:39;;;;;;;1999.90;999.90;;;;;;;;;;4938451;29;20118;-80
2023/01/31 05:18:05;;;;;;;1999.90;999.90;;;8.60;94.50;;;;;;4921321;29;20090;-81
2023/01/31 05:20:35;;;;;;;1999.90;999.90;;;8.60;95.00;;;;;;4918783;29;20044;-81
2023/01/31 05:23:01;;;;;;;1999.90;999.90;;;8.90;43.30;;;;;;4936711;29;20044;-81
2023/01/31 05:25:27;;;;;;;1999.90;906.42;;;8.70;42.30;;;;;;4937789;29;20040;-80
2023/01/31 05:27:53;;;;;;;1999.90;999.90;;;8.70;41.80;;;;;;4930889;29;20516;-81
2023/01/31 05:30:19;;;;;;;1999.90;867.30;;;8.70;36.30;;;;;;4912414;29;20052;-81
2023/01/31 05:32:47;;;;;;;1999.90;999.90;;;8.70;32.50;;;;;;4936695;29;20051;-81
2023/01/31 05:35:14;;;;;;;1999.90;829.17;;;;;;;;;;4935600;29;20055;-81
2023/01/31 05:37:42;;;;;;;1999.90;999.90;;;8.80;1.00;;;;;;4918137;29;20134;-85
2023/01/31 05:40:13;;;;;;;1999.90;685.05;;;8.80;3.20;;;;;;4930314;29;20047;-82
2023/01/31 05:42:39;;;;;;;1999.90;999.90;;;8.90;1.00;;;;;;4934382;29;20507;-81
2023/01/31 05:45:06;;;;;;;1999.90;999.90;;;8.90;1.50;;;;;;4932556;29;20047;-82
2023/01/31 05:47:32;;;;;;;1999.90;999.90;;;8.90;3.40;;;;;;4934959;29;20221;-82
2023/01/31 05:49:58;;;;;;;1999.90;999.90;;;;;;;;;;4917873;29;20485;-82
2023/01/31 05:52:23;;;;;;;1999.90;999.90;;;9.80;20.50;;;;;;4901115;29;20083;-82
2023/01/31 05:54:49;;;;;;;1999.90;573.92;;;8.90;1.00;;;;;;4900590;29;20071;-82
2023/01/31 05:57:15;;;;;;;1999.90;996.42;;;9.20;8.30;;;;;;4923520;29;20094;-82
2023/01/31 05:59:41;;;;;;;1999.90;999.90;;;8.40;1.00;;;;;;4919764;29;20039;-81
2023/01/31 06:02:07;;;;;;;1999.90;999.90;;;9.10;1.00;;;;;;4943567;29;20119;-81
2023/01/31 06:04:33;;;;;;;1999.90;903.22;;;9.10;1.00;;;;;;4934343;29;20050;-82
2023/01/31 06:06:59;;;;;;;1999.90;999.90;;;9.10;1.00;;;;;;4900324;29;20563;-83
2023/01/31 06:09:25;;;;;;;1999.90;999.90;;;9.10;1.00;;;;;;4909628;29;20176;-81
2023/01/31 06:11:51;;;;;;;1999.90;999.90;;;9.20;1.00;;;;;;4933750;29;20110;-82
2023/01/31 06:14:17;;;;;;;1999.90;999.90;;;9.10;1.00;;;;;;4941114;28;20408;-82
2023/01/31 06:16:43;;;;;;;1999.90;914.92;;;9.10;1.00;;;;;;4934071;28;20512;-88
2023/01/31 06:19:09;;;;;;;1999.90;999.90;;;9.20;1.00;;;;;;4957828;28;20179;-83
2023/01/31 06:21:34;;;;;;;1999.90;999.90;;;8.90;1.00;;;;;;4932455;29;20047;-82
2023/01/31 06:24:00;;;;;;;1999.90;999.90;;;9.30;1.00;;;;;;4935988;29;20073;-82
2023/01/31 06:26:26;;;;;;;1999.90;796.92;;;9.30;1.00;;;;;;4933245;29;20553;-81
2023/01/31 06:28:52;;;;;;;1999.90;895.17;;;9.40;1.00;;;;;;4935367;29;20059;-82
2023/01/31 06:31:18;;;;;;;1999.90;946.65;;;9.30;1.00;;;;;;4928452;28;20047;-90
2023/01/31 06:33:44;;;;;;;1999.90;999.90;;;9.30;1.00;;;;;;4932355;29;20404;-81
2023/01/31 06:36:09;;;;;;;1999.90;999.90;;;9.40;99.90;;;;;;4952595;28;20055;-82
2023/01/31 06:38:35;;;;;;;1999.90;999.90;;;9.40;99.90;;;;;;4936577;29;20784;-82
2023/01/31 06:41:01;;;;;;;1999.90;999.90;;;9.60;99.90;;;;;;4951446;28;20051;-82
2023/01/31 06:43:26;;;;;;;1999.90;657.88;;;9.50;99.90;;;;;;4953454;29;20484;-83
2023/01/31 06:45:52;;;;;;;1999.90;867.15;;;9.40;99.90;;;;;;4935248;28;20053;-82
2023/01/31 06:48:20;;;;;;;1999.90;670.00;;;8.50;99.90;;;;;;4933890;28;20062;-82
2023/01/31 06:50:46;;;;;;;1999.90;999.90;;;9.50;99.90;;;;;;4942805;28;20074;-82
2023/01/31 06:53:12;;;;;;;1999.90;999.90;;;9.40;99.90;;;;;;4953239;28;20442;-82
2023/01/31 06:55:38;;;;;;;1999.90;999.90;;;9.50;99.90;;;;;;4936378;28;20122;-85
2023/01/31 06:58:04;;;;;;;1999.90;999.90;;;9.20;99.90;;;;;;4933889;28;20456;-84
2023/01/31 07:00:30;;;;;;;1999.90;999.90;;;9.40;99.90;;;;;;4952318;28;20566;-83
2023/01/31 07:02:56;;;;;;;1999.90;601.05;;;9.50;1.00;;;;;;4954485;29;20046;-82
2023/01/31 07:05:22;;;;;;;1999.90;999.90;;;9.40;99.90;;;;;;4942651;28;20050;-82
2023/01/31 07:07:48;;;;;;;1999.90;999.90;;;9.40;99.90;;;;;;4948349;28;20039;-84
2023/01/31 07:10:15;;;;;;;1999.90;999.90;;;11.20;99.90;;;;;;4951071;28;20058;-82
2023/01/31 07:12:41;;;;;;;1999.90;955.80;;;9.40;99.90;;;;;;4932511;29;20054;-81
2023/01/31 07:15:08;;;;;;;1999.90;993.47;;;9.50;99.90;;;;;;4935402;29;20385;-82
2023/01/31 07:17:34;;;;;;;1999.90;999.90;;;8.30;1.00;;;;;;4950963;28;20077;-82
2023/01/31 07:20:00;;;;;;;1999.90;682.88;;;9.80;1.00;;;;;;4939258;28;20527;-89
2023/01/31 07:22:25;;;;;;;1999.90;999.90;;;10.90;1.00;;;;;;4951454;28;20098;-82
2023/01/31 07:24:51;;;;;;;1999.90;999.90;;;9.00;99.90;;;;;;4947014;28;20047;-87
2023/01/31 07:27:17;;;;;;;1999.90;999.90;;;9.50;99.90;;;;;;4924656;29;20126;-81
2023/01/31 07:29:43;;;;;;;1999.90;765.17;;;9.50;99.90;;;;;;4948363;28;20148;-82
2023/01/31 07:32:10;;;;;;;1999.90;999.90;;;9.50;99.90;;;;;;4930937;29;20063;-82
2023/01/31 07:34:35;;;;;;;1999.90;999.90;;;10.60;99.90;;;;;;4934724;28;20107;-88
2023/01/31 07:37:01;;;;;;;1999.90;762.85;;;9.90;99.90;;;;;;4900560;29;20456;-82
2023/01/31 07:39:28;;;;;;;1999.90;999.90;;;9.50;99.90;;;;;;4939419;28;20051;-82
2023/01/31 07:41:54;;;;;;;1999.90;999.90;;;9.50;99.90;;;;;;4950643;28;20075;-82
2023/01/31 07:44:20;;;;;;;1999.90;628.83;;;9.50;1.00;;;;;;4952971;28;20086;-84
2023/01/31 07:46:45;;;;;;;1999.90;999.90;;;8.50;1.00;;;;;;4949951;28;20101;-83
2023/01/31 07:49:11;;;;;;;1999.90;999.90;;;9.40;1.00;;;;;;4957480;29;20069;-82
2023/01/31 07:51:37;;;;;;;1999.90;999.90;;;9.50;1.00;;;;;;4953674;28;20047;-84
2023/01/31 07:54:05;;;;;;;1999.90;999.90;;;9.50;1.00;;;;;;4956316;29;20051;-83
2023/01/31 07:56:31;;;;;;;1999.90;999.90;;;9.50;1.00;;;;;;4930395;29;20481;-82
2023/01/31 07:58:58;;;;;;;1999.90;633.72;;;9.50;1.00;;;;;;4950172;29;20047;-87
2023/01/31 08:04:13;;;;;;;1999.90;629.83;;;9.60;1.00;;;;;;4948198;28;20082;-82
2023/01/31 08:06:40;;;;;;;1999.90;771.22;;;9.50;1.00;;;;;;4937811;29;20552;-81
2023/01/31 08:09:05;;;;;;;1999.90;999.90;;;9.90;1.00;;;;;;4950752;29;20051;-85
2023/01/31 08:11:31;;;;;;;1999.90;999.90;;;9.50;1.00;;;;;;4955154;28;20054;-81
2023/01/31 08:13:57;;;;;;;1999.90;991.78;;;9.50;1.00;;;;;;4957369;28;20098;-81
2023/01/31 08:16:22;;;;;;;1999.90;992.38;;;9.80;1.00;;;;;;4957180;29;20047;-82
2023/01/31 08:18:49;;;;;;;1999.90;999.90;;;9.60;1.00;;;;;;4940428;28;20055;-81
2023/01/31 08:21:15;;;;;;;1999.90;771.42;;;9.60;1.00;;;;;;4956237;28;20083;-81
2023/01/31 08:23:41;;;;;;;1999.90;999.90;;;9.50;1.00;;;;;;4956645;28;20045;-81
2023/01/31 08:26:11;;;;;;;1999.90;999.90;;;10.10;1.00;;;;;;4939944;29;20046;-81
2023/01/31 08:28:38;;;;;;;1999.90;679.67;;;9.60;1.00;;;;;;4942637;28;20134;-82
2023/01/31 08:31:05;;;;;;;1999.90;999.90;;;9.70;1.00;;;;;;4930251;29;20051;-84
2023/01/31 08:33:31;;;;;;;1999.90;749.00;;;9.70;1.00;;;;;;4956569;29;20047;-82
2023/01/31 08:35:56;;;;;;;1999.90;841.13;;;9.80;1.00;;;;;;4939290;29;20073;-81
2023/01/31 08:38:22;;;;;;;1999.90;970.08;;;10.00;1.00;;;;;;4956848;29;20051;-82
2023/01/31 08:40:49;;;;;;;1999.90;999.90;;;11.20;1.00;;;;;;4934079;29;20130;-81
2023/01/31 08:43:15;;;;;;;1999.90;353.60;;;9.70;1.00;;;;;;4954678;28;20459;-81
2023/01/31 08:45:41;;;;;;;1999.90;999.90;;;10.20;1.00;;;;;;4956615;28;20476;-81
2023/01/31 08:48:06;;;;;;;1999.90;958.25;;;9.90;1.00;;;;;;4956757;29;20053;-82
2023/01/31 08:50:32;;;;;;;1999.90;999.90;;;9.30;1.00;;;;;;4936373;28;20456;-82
2023/01/31 08:53:00;;;;;;;1999.90;999.90;;;9.80;1.00;;;;;;4932963;29;20114;-83
2023/01/31 08:55:27;;;;;;;1999.90;978.45;;;10.30;1.00;;;;;;4932627;29;20122;-82
2023/01/31 08:57:53;;;;;;;1999.90;539.08;;;9.80;1.00;;;;;;4921661;29;20118;-80
2023/01/31 09:00:20;;;;;;;1999.90;644.05;;;9.90;1.00;;;;;;4934802;28;20457;-81
2023/01/31 09:02:57;;;;;;;1999.90;999.90;;;10.30;1.00;;;;;;4942231;28;20044;-84
2023/01/31 09:05:25;;;;;;;1999.90;999.90;;;9.90;99.90;;;;;;4937491;29;20087;-82
2023/01/31 09:07:51;;;;;;;1999.90;999.90;;;;;;;;;;4945199;28;20039;-81
2023/01/31 09:10:18;;;;;;;1999.90;596.05;;;9.90;1.00;;;;;;4947176;29;20043;-81
2023/01/31 09:12:44;;;;;;;1999.90;999.90;;;8.40;1.00;;;;;;4959670;29;20042;-80
2023/01/31 09:15:10;;;;;;;1999.90;837.83;;;10.00;99.90;;;;;;4961662;28;20059;-81
2023/01/31 09:17:37;;;;;;;1999.90;999.90;;;10.00;99.90;;;;;;4938189;28;20090;-82
2023/01/31 09:20:05;;;;;;;1999.90;845.72;;;10.00;99.90;;;;;;4939558;29;20051;-81
2023/01/31 09:22:34;;;;;;;1999.90;999.90;;;10.70;1.00;;;;;;4920777;29;20082;-82
2023/01/31 09:25:01;;;;;;;1999.90;999.90;;;10.00;99.90;;;;;;4954023;28;20047;-82
2023/01/31 09:27:28;;;;;;;1999.90;638.63;;;10.00;99.90;;;;;;4951698;29;20039;-81
2023/01/31 09:29:54;;;;;;;1999.90;999.90;;;9.70;99.90;;;;;;4953832;28;20101;-81
2023/01/31 09:32:20;;;;;;;1999.90;536.88;;;10.00;99.90;;;;;;4933852;28;20202;-81
2023/01/31 09:34:47;;;;;;;1999.90;999.90;;;10.00;99.90;;;;;;4958067;28;20521;-81
2023/01/31 09:37:14;;;;;;;1999.90;504.23;;;10.10;99.90;;;;;;4947289;29;20051;-82
2023/01/31 09:39:40;;;;;;;1999.90;634.78;;;10.10;99.90;;;;;;4937812;29;20401;-81
2023/01/31 09:42:18;;;;;;;1999.90;991.03;;;8.70;99.90;;;;;;4954187;29;20042;-82
2023/01/31 09:44:49;;;;;;;1999.90;999.90;;;10.20;99.90;;;;;;4951882;28;20380;-81
2023/01/31 09:47:49;;;;;;;1999.90;999.90;;;10.60;99.90;;;;;;4935985;29;20047;-81
2023/01/31 09:50:18;;;;;;;1999.90;999.90;;;11.20;99.90;;;;;;4953239;28;20051;-84
2023/01/31 09:52:44;;;;;;;1999.90;861.47;;;10.20;99.90;;;;;;4952836;28;20142;-82
2023/01/31 09:55:47;;;;;;;1999.90;999.90;;;10.20;99.90;;;;;;4922402;29;20055;-81
2023/01/31 09:58:22;;;;;;;1999.90;999.90;;;10.20;99.90;;;;;;4952597;29;20043;-82
2023/01/31 10:01:09;;;;;;;1999.90;889.15;;;10.50;99.90;;;;;;4940806;29;20051;-81
2023/01/31 10:03:50;;;;;;;1999.90;999.90;;;10.20;99.90;;;;;;4949820;28;20039;-83
2023/01/31 10:06:49;;;;;;;1999.90;805.95;;;10.20;99.90;;;;;;4952261;29;20051;-80
2023/01/31 10:09:27;;;;;;;1999.90;792.33;;;10.30;99.90;;;;;;4953023;28;20114;-81
2023/01/31 10:11:59;;;;;;;1999.90;999.90;;;10.20;99.90;;;;;;4952118;28;20049;-81
2023/01/31 10:14:52;;;;;;;1999.90;765.10;;;9.70;99.90;;;;;;4935191;29;20101;-85
2023/01/31 10:17:24;;;;;;;1999.90;999.90;;;10.30;99.90;;;;;;4955179;28;20050;-82
2023/01/31 10:19:56;;;;;;;1999.90;882.05;;;13.00;99.90;;;;;;4941359;29;20045;-83
2023/01/31 10:22:35;;;;;;;1999.90;999.90;;;10.30;99.90;;;;;;4930154;29;20086;-83
2023/01/31 10:25:27;;;;;;;1999.90;999.90;;;10.40;99.90;;;;;;4929375;29;20055;-81
2023/01/31 10:28:02;;;;;;;1999.90;999.90;;;9.30;99.90;;;;;;4951769;28;20508;-81
2023/01/31 10:30:43;;;;;;;1999.90;757.28;;;10.40;99.90;;;;;;4933075;29;20043;-82
2023/01/31 10:33:21;;;;;;;1999.90;999.90;;;10.40;99.90;;;;;;4929421;29;20039;-83
2023/01/31 10:35:49;;;;;;;1999.90;999.90;;;9.20;46.20;;;;;;4951803;29;20090;-82
2023/01/31 10:38:18;;;;;;;;;;;10.60;15.90;;;;;;4953179;28;20043;-81
2023/01/31 10:40:49;;;;;;;1999.90;844.80;;;10.30;99.90;;;;;;4944447;28;19958;-85
2023/01/31 10:43:20;;;;;;;1999.90;899.95;;;10.30;99.90;;;;;;4954475;28;20074;-82
2023/01/31 10:45:45;;;;;;;1999.90;999.90;;;9.80;99.90;;;;;;4947712;28;20078;-83
2023/01/31 10:48:16;;;;;;;1999.90;547.15;;;10.30;99.90;;;;;;4951067;28;20105;-82
2023/01/31 10:50:59;;;;;;;1999.90;999.90;;;10.30;99.90;;;;;;4953263;29;20050;-82
2023/01/31 10:54:06;;;;;;;1999.90;999.90;;;10.30;99.90;;;;;;4951637;28;20050;-82
2023/01/31 10:56:34;;;;;;;1999.90;431.27;;;10.30;1.00;;;;;;4910422;29;20556;-82
2023/01/31 10:59:04;;;;;;;1999.90;907.53;;;10.20;1.00;;;;;;4898673;29;20072;-82
2023/01/31 11:01:30;;;;;;;1999.90;702.58;;;10.20;67.70;;;;;;4933054;29;20058;-82
2023/01/31 11:03:57;;;;;;;1999.90;486.13;;;10.30;99.90;;;;;;4953839;29;20035;-83
2023/01/31 11:06:24;;;;;;;1999.90;662.05;;;10.20;99.90;;;;;;4936476;29;20050;-86
2023/01/31 11:08:56;;;;;;;1999.90;367.02;;;10.30;1.00;;;;;;4941558;29;20053;-83
2023/01/31 11:11:25;;;;;;;1999.90;936.53;;;10.70;99.90;;;;;;4941141;29;20441;-82
2023/01/31 11:14:02;;;;;;;1999.90;574.13;;;10.30;99.90;;;;;;4942789;29;20059;-82
2023/01/31 11:16:37;;;;;;;1999.90;611.77;;;9.80;99.90;;;;;;4912600;28;20048;-84
2023/01/31 11:19:16;;;;;;;1999.90;424.52;;;10.40;99.90;;;;;;4965039;28;20415;-82
2023/01/31 11:21:48;;;;;;;1999.90;883.15;;;9.20;99.90;;;;;;4967143;28;20051;-81
2023/01/31 11:24:21;;;;;;;1999.90;772.83;;;10.50;99.90;;;;;;4962393;28;20049;-84
2023/01/31 11:26:54;;;;;;;1999.90;654.40;;;10.30;99.90;;;;;;4965930;28;20279;-89
2023/01/31 11:29:26;;;;;;;1999.90;675.42;;;10.40;1.00;;;;;;4967551;28;20043;-80
2023/01/31 11:31:52;;;;;;;1999.90;935.45;;;11.80;1.00;;;;;;4941027;29;20051;-80
2023/01/31 11:34:36;;;;;;;1999.90;722.58;;;10.40;1.00;;;;;;4956190;28;20051;-82
2023/01/31 11:37:17;;;;;;;1999.90;999.90;;;10.40;8.20;;;;;;4945121;28;20051;-90
2023/01/31 11:40:13;;;;;;;1999.90;886.13;;;10.50;1.00;;;;;;4954037;28;20102;-83
2023/01/31 11:42:51;;;;;;;1999.90;999.90;;;10.40;2.50;;;;;;4940870;28;20134;-82
2023/01/31 11:45:19;;;;;;;1999.90;499.83;;;10.50;99.90;;;;;;4958534;28;20051;-83
2023/01/31 11:47:51;;;;;;;1999.90;695.88;;;10.50;99.90;;;;;;4955939;28;20091;-84
2023/01/31 11:50:36;;;;;;;1999.90;541.85;;;10.50;1.00;;;;;;4942294;28;20122;-83
2023/01/31 11:53:15;;;;;;;1999.90;546.75;;;10.50;1.00;;;;;;4947508;28;20047;-82
2023/01/31 11:55:42;;;;;;;1999.90;515.95;;;10.50;99.90;;;;;;4942326;28;20047;-84
2023/01/31 11:58:25;;;;;;;1999.90;507.90;;;10.50;99.90;;;;;;4937856;29;20047;-83
2023/01/31 12:01:01;;;;;;;1999.90;999.90;;;11.30;99.90;;;;;;4950618;28;20547;-83
2023/01/31 12:03:29;;;;;;;1999.90;953.03;;;10.50;99.90;;;;;;4942301;28;20281;-82
2023/01/31 12:06:09;;;;;;;1999.90;359.45;;;10.60;99.90;;;;;;4937771;28;20047;-84
2023/01/31 12:08:36;;;;;;;1999.90;372.33;;;10.60;99.90;;;;;;4954839;28;20134;-83
2023/01/31 12:11:20;;;;;;;1999.90;905.58;;;10.70;1.00;;;;;;4941262;29;20082;-83
2023/01/31 12:13:51;;;;;;;1999.90;514.65;;;10.90;1.00;;;;;;4933632;28;20584;-82
2023/01/31 12:16:25;;;;;;;1999.90;849.33;;;10.90;99.90;;;;;;4937012;28;20051;-87
2023/01/31 12:19:12;;;;;;;1999.90;999.90;;;11.00;99.90;;;;;;4956869;29;20142;-92
2023/01/31 12:22:17;;;;;;;1999.90;750.38;;;10.90;99.90;;;;;;4925966;29;20495;-82
2023/01/31 12:25:14;;;;;;;1999.90;424.60;;;11.10;99.90;;;;;;4955460;28;20440;-84
2023/01/31 12:28:06;;;;;;;1999.90;911.85;;;12.30;1.00;;;;;;4953306;28;20045;-82
2023/01/31 12:31:18;;;;;;;1999.90;561.63;;;11.30;1.00;;;;;;4936175;28;20113;-82
2023/01/31 12:33:57;;;;;;;1999.90;390.13;;;11.20;99.90;;;;;;4952480;28;20517;-82
2023/01/31 12:36:44;;;;;;;1999.90;360.27;;;11.30;99.90;;;;;;4948205;28;20058;-85
2023/01/31 12:39:41;;;;;;;1999.90;781.65;;;11.30;99.90;;;;;;4931544;29;20130;-83
2023/01/31 12:42:31;;;;;;;1999.90;489.80;;;11.30;99.90;;;;;;4938042;29;20043;-83